sensor_id;sensor_type;location;lat;lon;timestamp;P1;durP1;ratioP1;P2;durP2;ratioP2
10005;SDS011;5042;42.626;23.382;2022-11-20T00:01:18;3.40;;;2.20;;
10005;SDS011;5042;42.626;23.382;2022-11-20T00:03:47;6.13;;;4.60;;
10005;SDS011;5042;42.626;23.382;2022-11-20T00:06:16;4.17;;;3.77;;
10005;SDS011;5042;42.626;23.382;2022-11-20T00:08:44;2.70;;;2.43;;
10005;SDS011;5042;42.626;23.382;2022-11-20T00:11:12;10.83;;;2.30;;
10005;SDS011;5042;42.626;23.382;2022-11-20T00:13:40;4.63;;;3.17;;
10005;SDS011;5042;42.626;23.382;2022-11-20T00:16:08;3.07;;;2.77;;
10005;SDS011;5042;42.626;23.382;2022-11-20T00:18:36;4.67;;;3.30;;
10005;SDS011;5042;42.626;23.382;2022-11-20T00:21:03;3.67;;;3.33;;
10005;SDS011;5042;42.626;23.382;2022-11-20T00:23:32;3.50;;;3.20;;
10005;SDS011;5042;42.626;23.382;2022-11-20T00:26:03;2.97;;;2.60;;
10005;SDS011;5042;42.626;23.382;2022-11-20T00:28:31;2.90;;;2.60;;
10005;SDS011;5042;42.626;23.382;2022-11-20T00:31:01;2.63;;;2.00;;
10005;SDS011;5042;42.626;23.382;2022-11-20T00:33:29;2.60;;;2.40;;
10005;SDS011;5042;42.626;23.382;2022-11-20T00:35:58;2.47;;;1.60;;
10005;SDS011;5042;42.626;23.382;2022-11-20T00:38:26;2.00;;;1.80;;
10005;SDS011;5042;42.626;23.382;2022-11-20T00:40:55;1.60;;;1.50;;
10005;SDS011;5042;42.626;23.382;2022-11-20T00:43:23;1.67;;;1.58;;
10005;SDS011;5042;42.626;23.382;2022-11-20T00:45:49;1.73;;;1.50;;
10005;SDS011;5042;42.626;23.382;2022-11-20T00:48:16;1.70;;;1.60;;
10005;SDS011;5042;42.626;23.382;2022-11-20T00:50:43;1.40;;;1.30;;
10005;SDS011;5042;42.626;23.382;2022-11-20T00:53:09;1.65;;;1.55;;
10005;SDS011;5042;42.626;23.382;2022-11-20T00:55:36;2.05;;;1.85;;
10005;SDS011;5042;42.626;23.382;2022-11-20T00:58:04;3.03;;;1.70;;
10005;SDS011;5042;42.626;23.382;2022-11-20T01:00:31;1.80;;;1.70;;
10005;SDS011;5042;42.626;23.382;2022-11-20T01:02:58;1.50;;;1.40;;
10005;SDS011;5042;42.626;23.382;2022-11-20T01:05:24;2.22;;;1.15;;
10005;SDS011;5042;42.626;23.382;2022-11-20T01:07:51;1.40;;;1.30;;
10005;SDS011;5042;42.626;23.382;2022-11-20T01:10:18;1.58;;;1.35;;
10005;SDS011;5042;42.626;23.382;2022-11-20T01:12:45;1.60;;;1.48;;
10005;SDS011;5042;42.626;23.382;2022-11-20T01:15:34;1.83;;;1.15;;
10005;SDS011;5042;42.626;23.382;2022-11-20T01:18:01;1.67;;;1.58;;
10005;SDS011;5042;42.626;23.382;2022-11-20T01:20:28;2.13;;;1.58;;
10005;SDS011;5042;42.626;23.382;2022-11-20T01:22:55;2.10;;;1.58;;
10005;SDS011;5042;42.626;23.382;2022-11-20T01:25:21;2.20;;;2.00;;
10005;SDS011;5042;42.626;23.382;2022-11-20T01:27:48;1.77;;;1.60;;
10005;SDS011;5042;42.626;23.382;2022-11-20T01:30:15;1.70;;;1.60;;
10005;SDS011;5042;42.626;23.382;2022-11-20T01:32:43;1.42;;;1.30;;
10005;SDS011;5042;42.626;23.382;2022-11-20T01:35:10;1.67;;;1.52;;
10005;SDS011;5042;42.626;23.382;2022-11-20T01:37:36;1.60;;;1.50;;
10005;SDS011;5042;42.626;23.382;2022-11-20T01:40:04;2.33;;;1.80;;
10005;SDS011;5042;42.626;23.382;2022-11-20T01:42:31;2.13;;;1.60;;
10005;SDS011;5042;42.626;23.382;2022-11-20T01:48:17;1.50;;;1.40;;
10005;SDS011;5042;42.626;23.382;2022-11-20T01:50:46;1.55;;;1.45;;
10005;SDS011;5042;42.626;23.382;2022-11-20T01:53:13;1.85;;;1.65;;
10005;SDS011;5042;42.626;23.382;2022-11-20T01:55:44;2.95;;;1.95;;
10005;SDS011;5042;42.626;23.382;2022-11-20T01:58:13;2.33;;;2.10;;
10005;SDS011;5042;42.626;23.382;2022-11-20T02:00:40;2.43;;;2.23;;
10005;SDS011;5042;42.626;23.382;2022-11-20T02:03:08;2.20;;;2.00;;
10005;SDS011;5042;42.626;23.382;2022-11-20T02:05:40;2.47;;;2.00;;
10005;SDS011;5042;42.626;23.382;2022-11-20T02:08:11;1.80;;;1.70;;
10005;SDS011;5042;42.626;23.382;2022-11-20T02:10:38;3.13;;;1.80;;
10005;SDS011;5042;42.626;23.382;2022-11-20T02:13:05;2.45;;;1.80;;
10005;SDS011;5042;42.626;23.382;2022-11-20T02:15:50;3.10;;;1.93;;
10005;SDS011;5042;42.626;23.382;2022-11-20T02:18:18;2.83;;;1.90;;
10005;SDS011;5042;42.626;23.382;2022-11-20T02:20:48;1.75;;;1.40;;
10005;SDS011;5042;42.626;23.382;2022-11-20T02:23:21;1.10;;;1.00;;
10005;SDS011;5042;42.626;23.382;2022-11-20T02:25:53;0.80;;;0.80;;
10005;SDS011;5042;42.626;23.382;2022-11-20T02:28:20;0.90;;;0.90;;
10005;SDS011;5042;42.626;23.382;2022-11-20T02:30:49;0.88;;;0.68;;
10005;SDS011;5042;42.626;23.382;2022-11-20T02:33:16;2.83;;;1.05;;
10005;SDS011;5042;42.626;23.382;2022-11-20T02:35:43;1.17;;;1.15;;
10005;SDS011;5042;42.626;23.382;2022-11-20T02:38:12;1.42;;;1.33;;
10005;SDS011;5042;42.626;23.382;2022-11-20T02:40:40;1.40;;;1.30;;
10005;SDS011;5042;42.626;23.382;2022-11-20T02:43:08;0.90;;;0.90;;
10005;SDS011;5042;42.626;23.382;2022-11-20T02:45:35;0.90;;;0.90;;
10005;SDS011;5042;42.626;23.382;2022-11-20T02:48:02;0.90;;;0.90;;
10005;SDS011;5042;42.626;23.382;2022-11-20T02:50:28;2.75;;;1.00;;
10005;SDS011;5042;42.626;23.382;2022-11-20T02:52:56;0.70;;;0.70;;
10005;SDS011;5042;42.626;23.382;2022-11-20T02:55:22;0.50;;;0.50;;
10005;SDS011;5042;42.626;23.382;2022-11-20T02:57:49;0.75;;;0.50;;
10005;SDS011;5042;42.626;23.382;2022-11-20T03:00:17;1.13;;;0.80;;
10005;SDS011;5042;42.626;23.382;2022-11-20T03:02:44;0.75;;;0.60;;
10005;SDS011;5042;42.626;23.382;2022-11-20T03:05:11;0.50;;;0.50;;
10005;SDS011;5042;42.626;23.382;2022-11-20T03:07:38;0.98;;;0.65;;
10005;SDS011;5042;42.626;23.382;2022-11-20T03:10:05;0.95;;;0.50;;
10005;SDS011;5042;42.626;23.382;2022-11-20T03:12:32;0.70;;;0.65;;
10005;SDS011;5042;42.626;23.382;2022-11-20T03:14:59;0.45;;;0.45;;
10005;SDS011;5042;42.626;23.382;2022-11-20T03:17:27;0.75;;;0.70;;
10005;SDS011;5042;42.626;23.382;2022-11-20T03:19:55;1.48;;;0.60;;
10005;SDS011;5042;42.626;23.382;2022-11-20T03:22:22;0.60;;;0.60;;
10005;SDS011;5042;42.626;23.382;2022-11-20T03:24:49;0.65;;;0.60;;
10005;SDS011;5042;42.626;23.382;2022-11-20T03:27:16;0.60;;;0.50;;
10005;SDS011;5042;42.626;23.382;2022-11-20T03:29:42;0.50;;;0.50;;
10005;SDS011;5042;42.626;23.382;2022-11-20T03:32:09;0.40;;;0.40;;
10005;SDS011;5042;42.626;23.382;2022-11-20T03:34:37;0.50;;;0.50;;
10005;SDS011;5042;42.626;23.382;2022-11-20T03:37:04;1.85;;;0.60;;
10005;SDS011;5042;42.626;23.382;2022-11-20T03:39:31;2.17;;;0.55;;
10005;SDS011;5042;42.626;23.382;2022-11-20T03:41:57;0.50;;;0.50;;
10005;SDS011;5042;42.626;23.382;2022-11-20T03:44:24;1.00;;;0.90;;
10005;SDS011;5042;42.626;23.382;2022-11-20T03:46:51;2.25;;;0.60;;
10005;SDS011;5042;42.626;23.382;2022-11-20T03:49:18;1.58;;;0.60;;
10005;SDS011;5042;42.626;23.382;2022-11-20T03:51:46;1.80;;;0.50;;
10005;SDS011;5042;42.626;23.382;2022-11-20T03:54:12;0.50;;;0.50;;
10005;SDS011;5042;42.626;23.382;2022-11-20T03:56:39;0.50;;;0.50;;
10005;SDS011;5042;42.626;23.382;2022-11-20T03:59:06;0.88;;;0.60;;
10005;SDS011;5042;42.626;23.382;2022-11-20T04:01:36;0.65;;;0.40;;
10005;SDS011;5042;42.626;23.382;2022-11-20T04:04:03;0.77;;;0.43;;
10005;SDS011;5042;42.626;23.382;2022-11-20T04:06:33;0.68;;;0.40;;
10005;SDS011;5042;42.626;23.382;2022-11-20T04:09:02;0.60;;;0.60;;
10005;SDS011;5042;42.626;23.382;2022-11-20T04:11:30;0.68;;;0.50;;
10005;SDS011;5042;42.626;23.382;2022-11-20T04:13:59;0.55;;;0.55;;
10005;SDS011;5042;42.626;23.382;2022-11-20T04:16:28;0.40;;;0.40;;
10005;SDS011;5042;42.626;23.382;2022-11-20T04:18:57;1.25;;;0.60;;
10005;SDS011;5042;42.626;23.382;2022-11-20T04:21:25;0.50;;;0.50;;
10005;SDS011;5042;42.626;23.382;2022-11-20T04:23:52;0.70;;;0.60;;
10005;SDS011;5042;42.626;23.382;2022-11-20T04:26:21;1.55;;;0.50;;
10005;SDS011;5042;42.626;23.382;2022-11-20T04:28:49;0.60;;;0.60;;
10005;SDS011;5042;42.626;23.382;2022-11-20T04:31:17;0.88;;;0.40;;
10005;SDS011;5042;42.626;23.382;2022-11-20T04:33:46;0.50;;;0.50;;
10005;SDS011;5042;42.626;23.382;2022-11-20T04:36:13;0.40;;;0.40;;
10005;SDS011;5042;42.626;23.382;2022-11-20T04:38:41;0.95;;;0.60;;
10005;SDS011;5042;42.626;23.382;2022-11-20T04:41:09;0.60;;;0.40;;
10005;SDS011;5042;42.626;23.382;2022-11-20T04:43:45;0.50;;;0.50;;
10005;SDS011;5042;42.626;23.382;2022-11-20T04:46:13;0.60;;;0.60;;
10005;SDS011;5042;42.626;23.382;2022-11-20T04:48:41;0.50;;;0.50;;
10005;SDS011;5042;42.626;23.382;2022-11-20T04:51:07;0.50;;;0.50;;
10005;SDS011;5042;42.626;23.382;2022-11-20T04:53:34;0.80;;;0.63;;
10005;SDS011;5042;42.626;23.382;2022-11-20T04:56:01;0.55;;;0.55;;
10005;SDS011;5042;42.626;23.382;2022-11-20T04:58:29;1.20;;;0.60;;
10005;SDS011;5042;42.626;23.382;2022-11-20T05:01:01;0.55;;;0.55;;
10005;SDS011;5042;42.626;23.382;2022-11-20T05:03:29;1.88;;;0.43;;
10005;SDS011;5042;42.626;23.382;2022-11-20T05:05:55;0.88;;;0.55;;
10005;SDS011;5042;42.626;23.382;2022-11-20T05:08:22;0.50;;;0.50;;
10005;SDS011;5042;42.626;23.382;2022-11-20T05:10:49;1.63;;;0.40;;
10005;SDS011;5042;42.626;23.382;2022-11-20T05:13:16;0.30;;;0.30;;
10005;SDS011;5042;42.626;23.382;2022-11-20T05:15:42;1.00;;;0.60;;
10005;SDS011;5042;42.626;23.382;2022-11-20T05:18:10;0.75;;;0.65;;
10005;SDS011;5042;42.626;23.382;2022-11-20T05:20:37;0.60;;;0.60;;
10005;SDS011;5042;42.626;23.382;2022-11-20T05:23:04;1.40;;;0.75;;
10005;SDS011;5042;42.626;23.382;2022-11-20T05:25:30;0.77;;;0.77;;
10005;SDS011;5042;42.626;23.382;2022-11-20T05:27:57;1.30;;;0.60;;
10005;SDS011;5042;42.626;23.382;2022-11-20T05:30:24;1.50;;;0.90;;
10005;SDS011;5042;42.626;23.382;2022-11-20T05:32:51;0.95;;;0.80;;
10005;SDS011;5042;42.626;23.382;2022-11-20T05:35:19;0.98;;;0.70;;
10005;SDS011;5042;42.626;23.382;2022-11-20T05:37:45;0.95;;;0.93;;
10005;SDS011;5042;42.626;23.382;2022-11-20T05:40:12;1.37;;;0.77;;
10005;SDS011;5042;42.626;23.382;2022-11-20T05:42:39;0.80;;;0.80;;
10005;SDS011;5042;42.626;23.382;2022-11-20T05:45:08;1.88;;;0.95;;
10005;SDS011;5042;42.626;23.382;2022-11-20T05:47:35;0.93;;;0.80;;
10005;SDS011;5042;42.626;23.382;2022-11-20T05:50:02;1.17;;;0.87;;
10005;SDS011;5042;42.626;23.382;2022-11-20T05:52:31;1.03;;;0.90;;
10005;SDS011;5042;42.626;23.382;2022-11-20T05:54:58;0.80;;;0.80;;
10005;SDS011;5042;42.626;23.382;2022-11-20T05:57:24;0.70;;;0.70;;
10005;SDS011;5042;42.626;23.382;2022-11-20T05:59:51;0.90;;;0.83;;
10005;SDS011;5042;42.626;23.382;2022-11-20T06:02:18;0.90;;;0.90;;
10005;SDS011;5042;42.626;23.382;2022-11-20T06:04:44;0.80;;;0.80;;
10005;SDS011;5042;42.626;23.382;2022-11-20T06:07:11;1.00;;;0.90;;
10005;SDS011;5042;42.626;23.382;2022-11-20T06:09:39;1.10;;;0.90;;
10005;SDS011;5042;42.626;23.382;2022-11-20T06:12:06;1.10;;;0.93;;
10005;SDS011;5042;42.626;23.382;2022-11-20T06:14:33;0.60;;;0.60;;
10005;SDS011;5042;42.626;23.382;2022-11-20T06:17:00;0.60;;;0.60;;
10005;SDS011;5042;42.626;23.382;2022-11-20T06:19:27;0.90;;;0.90;;
10005;SDS011;5042;42.626;23.382;2022-11-20T06:21:54;0.77;;;0.70;;
10005;SDS011;5042;42.626;23.382;2022-11-20T06:24:20;0.60;;;0.60;;
10005;SDS011;5042;42.626;23.382;2022-11-20T06:26:49;2.13;;;1.20;;
10005;SDS011;5042;42.626;23.382;2022-11-20T06:29:16;0.68;;;0.68;;
10005;SDS011;5042;42.626;23.382;2022-11-20T06:31:42;2.13;;;1.10;;
10005;SDS011;5042;42.626;23.382;2022-11-20T06:34:09;0.73;;;0.68;;
10005;SDS011;5042;42.626;23.382;2022-11-20T06:36:36;0.93;;;0.77;;
10005;SDS011;5042;42.626;23.382;2022-11-20T06:39:03;0.60;;;0.52;;
10005;SDS011;5042;42.626;23.382;2022-11-20T06:41:29;1.97;;;1.10;;
10005;SDS011;5042;42.626;23.382;2022-11-20T06:43:57;0.85;;;0.75;;
10005;SDS011;5042;42.626;23.382;2022-11-20T06:46:24;1.77;;;0.90;;
10005;SDS011;5042;42.626;23.382;2022-11-20T06:48:51;2.35;;;0.75;;
10005;SDS011;5042;42.626;23.382;2022-11-20T06:51:18;1.07;;;0.70;;
10005;SDS011;5042;42.626;23.382;2022-11-20T06:53:44;1.42;;;0.80;;
10005;SDS011;5042;42.626;23.382;2022-11-20T06:56:11;1.48;;;0.90;;
10005;SDS011;5042;42.626;23.382;2022-11-20T06:58:38;0.52;;;0.52;;
10005;SDS011;5042;42.626;23.382;2022-11-20T07:01:07;0.60;;;0.60;;
10005;SDS011;5042;42.626;23.382;2022-11-20T07:03:36;0.70;;;0.70;;
10005;SDS011;5042;42.626;23.382;2022-11-20T07:06:03;0.77;;;0.75;;
10005;SDS011;5042;42.626;23.382;2022-11-20T07:08:30;2.23;;;0.70;;
10005;SDS011;5042;42.626;23.382;2022-11-20T07:10:57;0.70;;;0.70;;
10005;SDS011;5042;42.626;23.382;2022-11-20T07:13:25;2.42;;;0.88;;
10005;SDS011;5042;42.626;23.382;2022-11-20T07:15:53;1.03;;;0.80;;
10005;SDS011;5042;42.626;23.382;2022-11-20T07:18:21;0.73;;;0.73;;
10005;SDS011;5042;42.626;23.382;2022-11-20T07:20:47;1.67;;;0.80;;
10005;SDS011;5042;42.626;23.382;2022-11-20T07:23:14;0.70;;;0.70;;
10005;SDS011;5042;42.626;23.382;2022-11-20T07:25:41;1.42;;;0.60;;
10005;SDS011;5042;42.626;23.382;2022-11-20T07:28:08;0.73;;;0.70;;
10005;SDS011;5042;42.626;23.382;2022-11-20T07:30:36;1.33;;;0.80;;
10005;SDS011;5042;42.626;23.382;2022-11-20T07:33:03;0.70;;;0.70;;
10005;SDS011;5042;42.626;23.382;2022-11-20T07:35:31;0.70;;;0.70;;
10005;SDS011;5042;42.626;23.382;2022-11-20T07:37:58;1.17;;;1.00;;
10005;SDS011;5042;42.626;23.382;2022-11-20T07:40:25;2.50;;;1.20;;
10005;SDS011;5042;42.626;23.382;2022-11-20T07:42:52;1.40;;;0.60;;
10005;SDS011;5042;42.626;23.382;2022-11-20T07:45:22;0.50;;;0.50;;
10005;SDS011;5042;42.626;23.382;2022-11-20T07:47:49;0.98;;;0.90;;
10005;SDS011;5042;42.626;23.382;2022-11-20T07:50:16;0.98;;;0.90;;
10005;SDS011;5042;42.626;23.382;2022-11-20T07:52:44;1.98;;;0.60;;
10005;SDS011;5042;42.626;23.382;2022-11-20T07:55:11;0.50;;;0.50;;
10005;SDS011;5042;42.626;23.382;2022-11-20T07:57:39;0.98;;;0.80;;
10005;SDS011;5042;42.626;23.382;2022-11-20T08:00:06;0.80;;;0.80;;
10005;SDS011;5042;42.626;23.382;2022-11-20T08:02:36;0.90;;;0.60;;
10005;SDS011;5042;42.626;23.382;2022-11-20T08:05:04;1.17;;;0.80;;
10005;SDS011;5042;42.626;23.382;2022-11-20T08:07:34;0.70;;;0.70;;
10005;SDS011;5042;42.626;23.382;2022-11-20T08:10:03;1.15;;;0.98;;
10005;SDS011;5042;42.626;23.382;2022-11-20T08:12:31;1.60;;;0.90;;
10005;SDS011;5042;42.626;23.382;2022-11-20T08:15:15;1.48;;;0.70;;
10005;SDS011;5042;42.626;23.382;2022-11-20T08:17:41;1.23;;;1.02;;
10005;SDS011;5042;42.626;23.382;2022-11-20T08:20:09;2.20;;;1.25;;
10005;SDS011;5042;42.626;23.382;2022-11-20T08:22:36;1.30;;;0.77;;
10005;SDS011;5042;42.626;23.382;2022-11-20T08:25:05;2.63;;;0.80;;
10005;SDS011;5042;42.626;23.382;2022-11-20T08:27:32;0.80;;;0.80;;
10005;SDS011;5042;42.626;23.382;2022-11-20T08:29:59;1.52;;;0.57;;
10005;SDS011;5042;42.626;23.382;2022-11-20T08:32:25;1.27;;;0.77;;
10005;SDS011;5042;42.626;23.382;2022-11-20T08:34:52;5.05;;;1.05;;
10005;SDS011;5042;42.626;23.382;2022-11-20T08:37:19;1.75;;;1.02;;
10005;SDS011;5042;42.626;23.382;2022-11-20T08:39:45;2.05;;;0.90;;
10005;SDS011;5042;42.626;23.382;2022-11-20T08:42:13;0.70;;;0.70;;
10005;SDS011;5042;42.626;23.382;2022-11-20T08:44:40;1.10;;;0.75;;
10005;SDS011;5042;42.626;23.382;2022-11-20T08:47:08;0.75;;;0.75;;
10005;SDS011;5042;42.626;23.382;2022-11-20T08:49:34;1.13;;;0.70;;
10005;SDS011;5042;42.626;23.382;2022-11-20T08:52:01;2.08;;;0.73;;
10005;SDS011;5042;42.626;23.382;2022-11-20T08:54:28;0.70;;;0.70;;
10005;SDS011;5042;42.626;23.382;2022-11-20T08:56:55;2.20;;;0.90;;
10005;SDS011;5042;42.626;23.382;2022-11-20T08:59:23;3.90;;;0.82;;
10005;SDS011;5042;42.626;23.382;2022-11-20T09:01:49;2.40;;;0.95;;
10005;SDS011;5042;42.626;23.382;2022-11-20T09:04:16;1.02;;;0.77;;
10005;SDS011;5042;42.626;23.382;2022-11-20T09:06:43;1.02;;;0.70;;
10005;SDS011;5042;42.626;23.382;2022-11-20T09:09:10;0.85;;;0.85;;
10005;SDS011;5042;42.626;23.382;2022-11-20T09:11:36;1.15;;;1.10;;
10005;SDS011;5042;42.626;23.382;2022-11-20T09:14:03;2.55;;;1.13;;
10005;SDS011;5042;42.626;23.382;2022-11-20T09:16:31;1.38;;;1.27;;
10005;SDS011;5042;42.626;23.382;2022-11-20T09:18:58;2.10;;;1.60;;
10005;SDS011;5042;42.626;23.382;2022-11-20T09:21:25;2.42;;;1.30;;
10005;SDS011;5042;42.626;23.382;2022-11-20T09:23:52;3.90;;;1.42;;
10005;SDS011;5042;42.626;23.382;2022-11-20T09:26:18;1.83;;;1.38;;
10005;SDS011;5042;42.626;23.382;2022-11-20T09:28:45;1.60;;;1.50;;
10005;SDS011;5042;42.626;23.382;2022-11-20T09:31:15;3.15;;;1.40;;
10005;SDS011;5042;42.626;23.382;2022-11-20T09:33:49;2.15;;;1.48;;
10005;SDS011;5042;42.626;23.382;2022-11-20T09:36:15;1.50;;;1.40;;
10005;SDS011;5042;42.626;23.382;2022-11-20T09:41:33;1.50;;;1.40;;
10005;SDS011;5042;42.626;23.382;2022-11-20T09:44:19;1.70;;;1.60;;
10005;SDS011;5042;42.626;23.382;2022-11-20T09:46:57;2.45;;;1.40;;
10005;SDS011;5042;42.626;23.382;2022-11-20T09:49:32;1.83;;;1.40;;
10005;SDS011;5042;42.626;23.382;2022-11-20T09:52:14;2.45;;;1.70;;
10005;SDS011;5042;42.626;23.382;2022-11-20T09:54:48;1.60;;;1.50;;
10005;SDS011;5042;42.626;23.382;2022-11-20T09:57:17;2.78;;;1.63;;
10005;SDS011;5042;42.626;23.382;2022-11-20T09:59:49;1.30;;;1.20;;
10005;SDS011;5042;42.626;23.382;2022-11-20T10:02:35;2.17;;;1.45;;
10005;SDS011;5042;42.626;23.382;2022-11-20T10:05:10;1.30;;;1.20;;
10005;SDS011;5042;42.626;23.382;2022-11-20T10:07:44;1.40;;;1.30;;
10005;SDS011;5042;42.626;23.382;2022-11-20T10:10:21;2.03;;;1.50;;
10005;SDS011;5042;42.626;23.382;2022-11-20T10:13:01;2.00;;;1.83;;
10005;SDS011;5042;42.626;23.382;2022-11-20T10:15:40;2.13;;;1.50;;
10005;SDS011;5042;42.626;23.382;2022-11-20T10:18:21;1.63;;;1.52;;
10005;SDS011;5042;42.626;23.382;2022-11-20T10:21:03;1.30;;;1.20;;
10005;SDS011;5042;42.626;23.382;2022-11-20T10:23:45;2.53;;;1.43;;
10005;SDS011;5042;42.626;23.382;2022-11-20T10:26:27;2.10;;;1.52;;
10005;SDS011;5042;42.626;23.382;2022-11-20T10:29:01;2.28;;;1.42;;
10005;SDS011;5042;42.626;23.382;2022-11-20T10:31:37;3.08;;;1.67;;
10005;SDS011;5042;42.626;23.382;2022-11-20T10:34:07;3.33;;;1.70;;
10005;SDS011;5042;42.626;23.382;2022-11-20T10:36:45;1.47;;;1.30;;
10005;SDS011;5042;42.626;23.382;2022-11-20T10:39:16;2.63;;;1.55;;
10005;SDS011;5042;42.626;23.382;2022-11-20T10:41:49;3.43;;;1.77;;
10005;SDS011;5042;42.626;23.382;2022-11-20T10:44:19;3.50;;;1.43;;
10005;SDS011;5042;42.626;23.382;2022-11-20T10:47:00;1.77;;;1.50;;
10005;SDS011;5042;42.626;23.382;2022-11-20T10:49:27;3.20;;;1.83;;
10005;SDS011;5042;42.626;23.382;2022-11-20T10:51:59;2.08;;;1.60;;
10005;SDS011;5042;42.626;23.382;2022-11-20T10:54:36;2.95;;;1.60;;
10005;SDS011;5042;42.626;23.382;2022-11-20T10:57:15;1.60;;;1.50;;
10005;SDS011;5042;42.626;23.382;2022-11-20T10:59:55;3.80;;;1.98;;
10005;SDS011;5042;42.626;23.382;2022-11-20T11:02:39;4.67;;;1.83;;
10005;SDS011;5042;42.626;23.382;2022-11-20T11:07:58;2.20;;;1.67;;
10005;SDS011;5042;42.626;23.382;2022-11-20T11:10:27;3.40;;;1.90;;
10005;SDS011;5042;42.626;23.382;2022-11-20T11:13:02;2.60;;;2.20;;
10005;SDS011;5042;42.626;23.382;2022-11-20T11:15:29;2.10;;;1.90;;
10005;SDS011;5042;42.626;23.382;2022-11-20T11:18:02;2.70;;;1.70;;
10005;SDS011;5042;42.626;23.382;2022-11-20T11:20:30;3.22;;;2.40;;
10005;SDS011;5042;42.626;23.382;2022-11-20T11:22:59;2.70;;;2.05;;
10005;SDS011;5042;42.626;23.382;2022-11-20T11:25:27;3.43;;;2.67;;
10005;SDS011;5042;42.626;23.382;2022-11-20T11:27:56;6.20;;;2.28;;
10005;SDS011;5042;42.626;23.382;2022-11-20T11:30:24;4.43;;;2.00;;
10005;SDS011;5042;42.626;23.382;2022-11-20T11:33:02;3.53;;;2.13;;
10005;SDS011;5042;42.626;23.382;2022-11-20T11:35:30;3.40;;;2.17;;
10005;SDS011;5042;42.626;23.382;2022-11-20T11:38:03;2.00;;;1.80;;
10005;SDS011;5042;42.626;23.382;2022-11-20T11:40:33;2.73;;;1.47;;
10005;SDS011;5042;42.626;23.382;2022-11-20T11:43:04;0.87;;;0.80;;
10005;SDS011;5042;42.626;23.382;2022-11-20T11:45:53;0.60;;;0.60;;
10005;SDS011;5042;42.626;23.382;2022-11-20T11:48:20;0.93;;;0.40;;
10005;SDS011;5042;42.626;23.382;2022-11-20T11:50:48;0.40;;;0.40;;
10005;SDS011;5042;42.626;23.382;2022-11-20T11:53:18;0.93;;;0.90;;
10005;SDS011;5042;42.626;23.382;2022-11-20T11:55:49;1.43;;;0.90;;
10005;SDS011;5042;42.626;23.382;2022-11-20T11:58:28;0.50;;;0.50;;
10005;SDS011;5042;42.626;23.382;2022-11-20T12:01:07;0.60;;;0.60;;
10005;SDS011;5042;42.626;23.382;2022-11-20T12:03:54;1.60;;;0.50;;
10005;SDS011;5042;42.626;23.382;2022-11-20T12:06:26;0.60;;;0.60;;
10005;SDS011;5042;42.626;23.382;2022-11-20T12:08:59;0.93;;;0.50;;
10005;SDS011;5042;42.626;23.382;2022-11-20T12:11:30;1.47;;;0.60;;
10005;SDS011;5042;42.626;23.382;2022-11-20T12:14:02;0.40;;;0.40;;
10005;SDS011;5042;42.626;23.382;2022-11-20T12:16:36;0.43;;;0.30;;
10005;SDS011;5042;42.626;23.382;2022-11-20T12:19:07;0.20;;;0.20;;
10005;SDS011;5042;42.626;23.382;2022-11-20T12:21:38;0.20;;;0.20;;
10005;SDS011;5042;42.626;23.382;2022-11-20T12:24:21;0.60;;;0.47;;
10005;SDS011;5042;42.626;23.382;2022-11-20T12:27:03;0.50;;;0.50;;
10005;SDS011;5042;42.626;23.382;2022-11-20T12:29:43;0.47;;;0.47;;
10005;SDS011;5042;42.626;23.382;2022-11-20T12:32:30;0.47;;;0.47;;
10005;SDS011;5042;42.626;23.382;2022-11-20T12:35:08;0.20;;;0.20;;
10005;SDS011;5042;42.626;23.382;2022-11-20T12:37:52;0.63;;;0.30;;
10005;SDS011;5042;42.626;23.382;2022-11-20T12:40:34;0.30;;;0.30;;
10005;SDS011;5042;42.626;23.382;2022-11-20T12:43:08;0.73;;;0.20;;
10005;SDS011;5042;42.626;23.382;2022-11-20T12:46:17;0.40;;;0.40;;
10005;SDS011;5042;42.626;23.382;2022-11-20T12:51:57;0.70;;;0.40;;
10005;SDS011;5042;42.626;23.382;2022-11-20T12:54:45;0.30;;;0.30;;
10005;SDS011;5042;42.626;23.382;2022-11-20T12:57:27;0.60;;;0.60;;
10005;SDS011;5042;42.626;23.382;2022-11-20T13:00:09;0.73;;;0.73;;
10005;SDS011;5042;42.626;23.382;2022-11-20T13:02:44;1.60;;;0.83;;
10005;SDS011;5042;42.626;23.382;2022-11-20T13:05:26;1.57;;;0.80;;
10005;SDS011;5042;42.626;23.382;2022-11-20T13:08:02;1.10;;;1.00;;
10005;SDS011;5042;42.626;23.382;2022-11-20T13:10:31;2.33;;;1.80;;
10005;SDS011;5042;42.626;23.382;2022-11-20T13:13:05;3.17;;;1.70;;
10005;SDS011;5042;42.626;23.382;2022-11-20T13:15:44;2.97;;;1.60;;
10005;SDS011;5042;42.626;23.382;2022-11-20T13:18:17;1.33;;;1.23;;
10005;SDS011;5042;42.626;23.382;2022-11-20T13:20:44;9.83;;;6.37;;
10005;SDS011;5042;42.626;23.382;2022-11-20T13:23:22;4.37;;;2.07;;
10005;SDS011;5042;42.626;23.382;2022-11-20T13:25:50;1.80;;;1.50;;
10005;SDS011;5042;42.626;23.382;2022-11-20T13:28:28;1.20;;;1.10;;
10005;SDS011;5042;42.626;23.382;2022-11-20T13:30:56;2.23;;;1.90;;
10005;SDS011;5042;42.626;23.382;2022-11-20T13:33:25;2.33;;;2.13;;
10005;SDS011;5042;42.626;23.382;2022-11-20T13:35:56;1.93;;;1.70;;
10005;SDS011;5042;42.626;23.382;2022-11-20T13:38:25;3.90;;;1.70;;
10005;SDS011;5042;42.626;23.382;2022-11-20T13:40:53;1.93;;;1.70;;
10005;SDS011;5042;42.626;23.382;2022-11-20T13:43:23;1.90;;;1.17;;
10005;SDS011;5042;42.626;23.382;2022-11-20T13:46:00;1.80;;;1.27;;
10005;SDS011;5042;42.626;23.382;2022-11-20T13:48:30;2.33;;;1.30;;
10005;SDS011;5042;42.626;23.382;2022-11-20T13:51:07;1.50;;;1.40;;
10005;SDS011;5042;42.626;23.382;2022-11-20T13:53:53;2.50;;;1.57;;
10005;SDS011;5042;42.626;23.382;2022-11-20T13:56:34;2.17;;;1.40;;
10005;SDS011;5042;42.626;23.382;2022-11-20T13:59:17;2.00;;;1.37;;
10005;SDS011;5042;42.626;23.382;2022-11-20T14:02:02;1.93;;;1.57;;
10005;SDS011;5042;42.626;23.382;2022-11-20T14:04:33;1.80;;;1.30;;
10005;SDS011;5042;42.626;23.382;2022-11-20T14:07:02;1.40;;;1.30;;
10005;SDS011;5042;42.626;23.382;2022-11-20T14:09:32;2.67;;;1.30;;
10005;SDS011;5042;42.626;23.382;2022-11-20T14:12:00;1.80;;;1.47;;
10005;SDS011;5042;42.626;23.382;2022-11-20T14:14:30;4.30;;;2.33;;
10005;SDS011;5042;42.626;23.382;2022-11-20T14:17:05;2.67;;;2.00;;
10005;SDS011;5042;42.626;23.382;2022-11-20T14:19:33;1.77;;;1.67;;
10005;SDS011;5042;42.626;23.382;2022-11-20T14:22:09;2.67;;;1.90;;
10005;SDS011;5042;42.626;23.382;2022-11-20T14:24:42;4.63;;;1.77;;
10005;SDS011;5042;42.626;23.382;2022-11-20T14:27:12;1.80;;;1.60;;
10005;SDS011;5042;42.626;23.382;2022-11-20T14:29:42;3.37;;;1.60;;
10005;SDS011;5042;42.626;23.382;2022-11-20T14:32:10;3.90;;;1.80;;
10005;SDS011;5042;42.626;23.382;2022-11-20T14:34:38;3.33;;;2.00;;
10005;SDS011;5042;42.626;23.382;2022-11-20T14:37:09;2.03;;;1.83;;
10005;SDS011;5042;42.626;23.382;2022-11-20T14:39:40;2.00;;;1.80;;
10005;SDS011;5042;42.626;23.382;2022-11-20T14:42:14;3.27;;;1.93;;
10005;SDS011;5042;42.626;23.382;2022-11-20T14:44:43;3.43;;;1.80;;
10005;SDS011;5042;42.626;23.382;2022-11-20T14:47:11;3.27;;;1.50;;
10005;SDS011;5042;42.626;23.382;2022-11-20T14:49:39;4.13;;;2.07;;
10005;SDS011;5042;42.626;23.382;2022-11-20T14:52:11;5.00;;;2.03;;
10005;SDS011;5042;42.626;23.382;2022-11-20T14:54:43;2.50;;;1.90;;
10005;SDS011;5042;42.626;23.382;2022-11-20T14:57:20;2.50;;;2.13;;
10005;SDS011;5042;42.626;23.382;2022-11-20T14:59:50;3.83;;;2.40;;
10005;SDS011;5042;42.626;23.382;2022-11-20T15:02:17;3.90;;;2.20;;
10005;SDS011;5042;42.626;23.382;2022-11-20T15:04:45;6.03;;;3.53;;
10005;SDS011;5042;42.626;23.382;2022-11-20T15:07:22;4.63;;;3.60;;
10005;SDS011;5042;42.626;23.382;2022-11-20T15:09:58;3.57;;;2.70;;
10005;SDS011;5042;42.626;23.382;2022-11-20T15:12:26;3.17;;;2.53;;
10005;SDS011;5042;42.626;23.382;2022-11-20T15:14:54;4.47;;;2.20;;
10005;SDS011;5042;42.626;23.382;2022-11-20T15:17:21;3.40;;;3.10;;